createdAt,value
2018-12-15T00:01:53.198Z,1.42
2018-12-15T00:04:21.520Z,1.56
2018-12-15T00:06:49.786Z,1.49
2018-12-15T00:09:18.072Z,1.54
2018-12-15T00:11:46.449Z,1.54
2018-12-15T00:14:14.827Z,1.27
2018-12-15T00:16:43.194Z,1.35
2018-12-15T00:19:11.454Z,1.24
2018-12-15T00:21:39.993Z,1.35
2018-12-15T00:24:08.234Z,1.45
2018-12-15T00:26:36.563Z,1.45
2018-12-15T00:29:04.870Z,1.51
2018-12-15T00:31:33.207Z,1.43
2018-12-15T00:34:01.416Z,1.44
2018-12-15T00:36:29.651Z,1.45
2018-12-15T00:38:57.926Z,1.44
2018-12-15T00:41:26.137Z,1.51
2018-12-15T00:43:54.386Z,1.45
2018-12-15T00:46:22.642Z,1.52
2018-12-15T00:48:50.935Z,1.46
2018-12-15T00:51:19.206Z,1.49
2018-12-15T00:53:47.416Z,1.43
2018-12-15T00:56:15.648Z,1.45
2018-12-15T00:58:43.955Z,1.48
2018-12-15T01:01:12.272Z,1.50
2018-12-15T01:03:40.700Z,1.39
2018-12-15T01:06:09.926Z,1.30
2018-12-15T01:08:38.246Z,1.37
2018-12-15T01:11:06.583Z,1.47
2018-12-15T01:13:35.235Z,1.45
2018-12-15T01:16:04.206Z,1.42
2018-12-15T01:18:32.830Z,1.32
2018-12-15T01:21:01.103Z,1.29
2018-12-15T01:23:29.382Z,1.33
2018-12-15T01:25:57.602Z,1.41
2018-12-15T01:28:25.835Z,1.38
2018-12-15T01:30:54.332Z,1.43
2018-12-15T01:33:22.616Z,1.40
2018-12-15T01:35:50.825Z,1.36
2018-12-15T01:38:19.148Z,1.34
2018-12-15T01:40:47.365Z,1.33
2018-12-15T01:43:15.598Z,1.31
2018-12-15T01:45:43.805Z,1.37
2018-12-15T01:48:12.034Z,1.43
2018-12-15T01:53:14.750Z,1.59
2018-12-15T01:55:42.995Z,1.58
2018-12-15T01:58:11.237Z,1.53
2018-12-15T02:00:39.497Z,1.45
2018-12-15T02:03:14.037Z,1.38
2018-12-15T02:05:42.368Z,1.51
2018-12-15T02:08:10.589Z,1.46
2018-12-15T02:10:38.836Z,1.39
2018-12-15T02:13:07.073Z,1.30
2018-12-15T02:15:35.423Z,1.25
2018-12-15T02:18:03.662Z,1.20
2018-12-15T02:20:32.027Z,1.24
2018-12-15T02:23:00.243Z,1.29
2018-12-15T02:25:28.602Z,1.32
2018-12-15T02:27:56.814Z,1.39
2018-12-15T02:30:34.960Z,1.36
2018-12-15T02:33:03.217Z,1.26
2018-12-15T02:35:31.513Z,1.34
2018-12-15T02:37:59.821Z,1.44
2018-12-15T02:40:28.056Z,1.39
2018-12-15T02:42:56.245Z,1.38
2018-12-15T02:45:24.630Z,1.30
2018-12-15T02:47:52.885Z,1.22
2018-12-15T02:50:21.112Z,1.22
2018-12-15T02:52:49.305Z,1.21
2018-12-15T02:55:17.498Z,1.25
2018-12-15T02:57:45.843Z,1.30
2018-12-15T03:00:14.180Z,1.22
2018-12-15T03:02:42.497Z,1.16
2018-12-15T03:05:10.839Z,1.16
2018-12-15T03:07:39.123Z,1.15
2018-12-15T03:10:07.601Z,1.16
2018-12-15T03:12:35.878Z,1.30
2018-12-15T03:15:04.522Z,1.24
2018-12-15T03:17:32.858Z,1.24
2018-12-15T03:20:01.994Z,1.21
2018-12-15T03:22:30.353Z,1.28
2018-12-15T03:24:58.644Z,1.40
2018-12-15T03:27:27.488Z,1.31
2018-12-15T03:29:55.742Z,1.28
2018-12-15T03:32:24.143Z,1.32
2018-12-15T03:34:55.370Z,1.25
2018-12-15T03:37:23.572Z,1.25
2018-12-15T03:39:51.918Z,1.16
2018-12-15T03:42:20.227Z,1.24
2018-12-15T03:44:48.431Z,1.19
2018-12-15T03:47:16.776Z,1.17
2018-12-15T03:49:45.129Z,1.20
2018-12-15T03:52:13.537Z,1.19
2018-12-15T03:54:42.032Z,1.15
2018-12-15T03:57:10.266Z,1.12
2018-12-15T03:59:38.945Z,1.15
2018-12-15T04:02:07.670Z,1.15
2018-12-15T04:04:36.301Z,1.15
2018-12-15T04:07:04.616Z,1.23
2018-12-15T04:09:32.932Z,1.13
2018-12-15T04:12:01.216Z,1.18
2018-12-15T04:14:29.504Z,1.22
2018-12-15T04:16:57.840Z,1.19
2018-12-15T04:19:26.073Z,1.26
2018-12-15T04:22:04.559Z,1.37
2018-12-15T04:24:32.786Z,1.19
2018-12-15T04:27:01.231Z,1.15
2018-12-15T04:29:29.456Z,1.18
2018-12-15T04:31:57.681Z,1.20
2018-12-15T04:34:25.997Z,1.21
2018-12-15T04:36:54.265Z,1.19
2018-12-15T04:39:22.486Z,1.22
2018-12-15T04:41:50.680Z,1.19
2018-12-15T04:44:19.188Z,1.11
2018-12-15T04:46:48.514Z,1.04
2018-12-15T04:49:16.769Z,1.01
2018-12-15T04:51:45.088Z,1.10
2018-12-15T04:54:13.551Z,1.12
2018-12-15T04:56:41.933Z,1.12
2018-12-15T04:59:10.453Z,1.15
2018-12-15T05:01:38.699Z,1.18
2018-12-15T05:04:06.897Z,1.12
2018-12-15T05:06:35.143Z,1.05
2018-12-15T05:09:03.460Z,1.06
2018-12-15T05:11:31.727Z,1.04
2018-12-15T05:13:59.955Z,1.11
2018-12-15T05:16:28.280Z,1.27
2018-12-15T05:18:56.523Z,1.19
2018-12-15T05:21:24.800Z,1.26
2018-12-15T05:23:53.187Z,1.20
2018-12-15T05:26:21.437Z,1.20
2018-12-15T05:28:49.657Z,1.21
2018-12-15T05:31:17.936Z,1.18
2018-12-15T05:33:46.185Z,1.26
2018-12-15T05:36:14.427Z,1.31
2018-12-15T05:38:42.743Z,1.13
2018-12-15T05:41:10.988Z,1.10
2018-12-15T05:43:39.297Z,1.05
2018-12-15T05:46:07.513Z,1.07
2018-12-15T05:48:35.775Z,1.17
2018-12-15T05:51:04.021Z,1.27
2018-12-15T05:53:32.237Z,1.22
2018-12-15T05:56:00.463Z,1.20
2018-12-15T05:58:28.686Z,1.14
2018-12-15T06:00:56.922Z,1.19
2018-12-15T06:03:25.209Z,1.19
2018-12-15T06:05:53.434Z,1.21
2018-12-15T06:08:21.633Z,1.25
2018-12-15T06:10:49.955Z,1.17
2018-12-15T06:13:18.181Z,1.03
2018-12-15T06:15:46.424Z,1.04
2018-12-15T06:18:14.650Z,1.08
2018-12-15T06:20:43.008Z,1.06
2018-12-15T06:23:11.592Z,1.02
2018-12-15T06:25:39.840Z,0.99
2018-12-15T06:28:08.044Z,1.14
2018-12-15T06:30:36.265Z,1.17
2018-12-15T06:33:04.539Z,1.08
2018-12-15T06:35:32.856Z,1.13
2018-12-15T06:38:01.081Z,1.07
2018-12-15T06:40:29.330Z,1.11
2018-12-15T06:42:57.566Z,1.05
2018-12-15T06:45:25.783Z,1.03
2018-12-15T06:47:54.047Z,1.09
2018-12-15T06:50:22.250Z,1.06
2018-12-15T06:52:50.530Z,1.03
2018-12-15T06:55:18.748Z,1.07
2018-12-15T06:57:46.953Z,1.13
2018-12-15T07:00:15.633Z,1.14
2018-12-15T07:02:43.981Z,1.01
2018-12-15T07:05:12.289Z,1.13
2018-12-15T07:07:40.505Z,1.10
2018-12-15T07:10:08.776Z,1.15
2018-12-15T07:12:36.994Z,1.14
2018-12-15T07:15:05.956Z,1.14
2018-12-15T07:17:34.286Z,1.22
2018-12-15T07:20:02.572Z,1.20
2018-12-15T07:22:30.894Z,1.15
2018-12-15T07:24:59.177Z,1.15
2018-12-15T07:27:27.398Z,1.13
2018-12-15T07:29:55.674Z,1.11
2018-12-15T07:32:23.922Z,1.08
2018-12-15T07:34:52.160Z,1.09
2018-12-15T07:37:20.394Z,1.09
2018-12-15T07:39:48.721Z,1.13
2018-12-15T07:42:16.936Z,1.17
2018-12-15T07:44:45.222Z,1.05
2018-12-15T07:47:13.576Z,1.06
2018-12-15T07:49:41.802Z,1.07
2018-12-15T07:52:10.053Z,1.09
2018-12-15T07:54:38.433Z,1.00
2018-12-15T07:57:06.710Z,1.15
2018-12-15T07:59:34.959Z,1.12
2018-12-15T08:02:03.172Z,1.22
2018-12-15T08:04:31.442Z,1.08
2018-12-15T08:06:59.671Z,1.08
2018-12-15T08:09:27.984Z,1.00
2018-12-15T08:12:01.712Z,1.16
2018-12-15T08:14:30.033Z,1.08
2018-12-15T08:16:58.294Z,1.03
2018-12-15T08:19:26.627Z,0.98
2018-12-15T08:21:54.946Z,1.03
2018-12-15T08:24:23.461Z,0.94
2018-12-15T08:29:44.914Z,1.00
2018-12-15T08:32:13.174Z,0.99
2018-12-15T08:34:46.980Z,0.96
2018-12-15T08:37:15.242Z,0.92
2018-12-15T08:39:43.562Z,1.03
2018-12-15T08:42:11.811Z,0.97
2018-12-15T08:44:40.099Z,0.94
2018-12-15T08:47:08.384Z,0.92
2018-12-15T08:49:36.624Z,1.01
2018-12-15T08:52:04.980Z,0.89
2018-12-15T08:54:33.286Z,0.94
2018-12-15T08:57:01.682Z,1.07
2018-12-15T08:59:30.048Z,1.08
2018-12-15T09:01:58.287Z,1.01
2018-12-15T09:04:26.539Z,0.99
2018-12-15T09:06:54.763Z,1.11
2018-12-15T09:09:23.166Z,1.11
2018-12-15T09:11:52.409Z,1.07
2018-12-15T09:14:20.667Z,1.04
2018-12-15T09:16:48.904Z,1.15
2018-12-15T09:19:17.173Z,1.16
2018-12-15T09:21:45.491Z,1.07
2018-12-15T09:24:13.925Z,1.05
2018-12-15T09:26:42.219Z,1.05
2018-12-15T09:29:10.497Z,1.03
2018-12-15T09:31:38.800Z,1.11
2018-12-15T09:34:07.245Z,1.10
2018-12-15T09:36:35.600Z,1.12
2018-12-15T09:39:04.974Z,1.18
2018-12-15T09:41:33.240Z,1.13
2018-12-15T09:44:01.608Z,1.10
2018-12-15T09:46:29.940Z,1.04
2018-12-15T09:48:58.208Z,1.09
2018-12-15T09:51:26.452Z,1.08
2018-12-15T09:53:54.757Z,1.17
2018-12-15T09:56:22.991Z,1.09
2018-12-15T09:58:51.259Z,1.27
2018-12-15T10:01:19.620Z,1.28
2018-12-15T10:03:47.855Z,1.11
2018-12-15T10:06:16.078Z,1.03
2018-12-15T10:08:44.307Z,1.00
2018-12-15T10:11:12.559Z,1.04
2018-12-15T10:13:40.880Z,1.00
2018-12-15T10:16:09.258Z,1.03
2018-12-15T10:18:37.606Z,0.99
2018-12-15T10:21:05.962Z,0.95
2018-12-15T10:23:34.236Z,1.02
2018-12-15T10:26:02.543Z,1.01
2018-12-15T10:28:30.942Z,1.03
2018-12-15T10:31:04.661Z,1.03
2018-12-15T10:33:32.966Z,1.00
2018-12-15T10:36:01.335Z,0.99
2018-12-15T10:38:29.554Z,1.06
2018-12-15T10:40:57.875Z,1.18
2018-12-15T10:43:26.099Z,1.18
2018-12-15T10:45:54.373Z,1.17
2018-12-15T10:48:22.617Z,1.17
2018-12-15T10:50:50.919Z,1.20
2018-12-15T10:53:19.155Z,1.19
2018-12-15T10:55:47.563Z,1.17
2018-12-15T10:58:15.876Z,1.19
2018-12-15T11:00:49.414Z,1.08
2018-12-15T11:03:17.688Z,1.18
2018-12-15T11:05:45.929Z,1.15
2018-12-15T11:08:14.188Z,1.11
2018-12-15T11:10:42.455Z,1.09
2018-12-15T11:13:10.751Z,1.10
2018-12-15T11:15:39.246Z,1.15
2018-12-15T11:18:07.492Z,1.15
2018-12-15T11:20:35.831Z,1.13
2018-12-15T11:23:04.187Z,1.11
2018-12-15T11:25:32.556Z,1.04
2018-12-15T11:28:00.825Z,1.15
2018-12-15T11:30:29.145Z,1.16
2018-12-15T11:32:57.450Z,1.10
2018-12-15T11:35:25.661Z,1.16
2018-12-15T11:37:53.912Z,1.20
2018-12-15T11:40:22.204Z,1.13
2018-12-15T11:42:50.492Z,1.12
2018-12-15T11:45:18.869Z,1.10
2018-12-15T11:47:47.141Z,1.14
2018-12-15T11:50:15.396Z,1.11
2018-12-15T11:52:43.643Z,1.13
2018-12-15T11:55:11.914Z,1.07
2018-12-15T11:57:40.239Z,1.11
2018-12-15T12:00:09.159Z,1.12
2018-12-15T12:02:37.544Z,1.08
2018-12-15T12:05:06.317Z,1.11
2018-12-15T12:07:34.583Z,1.11
2018-12-15T12:10:02.881Z,1.32
2018-12-15T12:12:31.862Z,1.27
2018-12-15T12:15:00.493Z,1.15
2018-12-15T12:17:28.799Z,1.28
2018-12-15T12:19:57.079Z,1.14
2018-12-15T12:22:25.299Z,1.15
2018-12-15T12:24:53.561Z,1.11
2018-12-15T12:27:21.829Z,1.16
2018-12-15T12:29:50.092Z,1.24
2018-12-15T12:32:18.341Z,1.19
2018-12-15T12:34:46.613Z,1.14
2018-12-15T12:37:14.842Z,1.16
2018-12-15T12:39:43.174Z,1.15
2018-12-15T12:42:11.393Z,1.15
2018-12-15T12:44:39.811Z,1.07
2018-12-15T12:47:08.116Z,1.14
2018-12-15T12:49:36.542Z,1.18
2018-12-15T12:52:04.885Z,1.22
2018-12-15T12:54:33.226Z,1.26
2018-12-15T12:57:01.598Z,1.31
2018-12-15T12:59:29.904Z,1.20
2018-12-15T13:01:58.199Z,1.10
2018-12-15T13:04:26.548Z,1.14
2018-12-15T13:06:54.862Z,1.10
2018-12-15T13:09:23.398Z,1.27
2018-12-15T13:11:51.861Z,1.14
2018-12-15T13:17:12.618Z,1.09
2018-12-15T13:19:40.934Z,1.04
2018-12-15T13:22:09.198Z,1.08
2018-12-15T13:24:37.513Z,1.08
2018-12-15T13:27:05.820Z,1.07
2018-12-15T13:29:34.250Z,1.07
2018-12-15T13:32:02.547Z,1.12
2018-12-15T13:34:30.802Z,1.05
2018-12-15T13:36:59.193Z,1.12
2018-12-15T13:39:27.540Z,1.16
2018-12-15T13:41:55.851Z,1.10
2018-12-15T13:44:24.107Z,1.06
2018-12-15T13:46:52.409Z,1.02
2018-12-15T13:49:20.761Z,0.96
2018-12-15T13:51:49.048Z,1.00
2018-12-15T13:54:17.319Z,1.04
2018-12-15T13:56:45.587Z,1.04
2018-12-15T13:59:13.896Z,1.14
2018-12-15T14:01:42.148Z,1.12
2018-12-15T14:04:10.479Z,1.00
2018-12-15T14:06:38.702Z,1.00
2018-12-15T14:09:08.345Z,1.06
2018-12-15T14:11:36.600Z,1.06
2018-12-15T14:14:04.946Z,1.19
2018-12-15T14:16:33.227Z,1.13
2018-12-15T14:19:01.458Z,1.03
2018-12-15T14:21:29.699Z,0.99
2018-12-15T14:23:58.191Z,1.05
2018-12-15T14:26:26.647Z,1.10
2018-12-15T14:28:54.964Z,1.07
2018-12-15T14:31:23.399Z,1.05
2018-12-15T14:33:51.638Z,0.96
2018-12-15T14:36:19.989Z,0.92
2018-12-15T14:38:48.389Z,0.87
2018-12-15T14:41:16.744Z,0.90
2018-12-15T14:43:45.396Z,0.84
2018-12-15T14:46:13.751Z,0.98
2018-12-15T14:48:42.068Z,0.94
2018-12-15T14:51:10.358Z,0.89
2018-12-15T14:53:38.647Z,0.90
2018-12-15T14:56:07.129Z,0.91
2018-12-15T14:58:35.622Z,0.91
2018-12-15T15:01:04.270Z,0.90
2018-12-15T15:03:32.541Z,0.89
2018-12-15T15:06:00.872Z,0.86
2018-12-15T15:08:29.193Z,0.90
2018-12-15T15:10:57.463Z,0.86
2018-12-15T15:13:25.843Z,0.88
2018-12-15T15:15:54.178Z,0.96
2018-12-15T15:18:22.536Z,0.94
2018-12-15T15:20:50.951Z,0.87
2018-12-15T15:23:19.216Z,0.93
2018-12-15T15:25:47.453Z,0.90
2018-12-15T15:28:15.710Z,0.85
2018-12-15T15:30:43.950Z,0.80
2018-12-15T15:33:12.210Z,0.89
2018-12-15T15:35:40.464Z,0.88
2018-12-15T15:38:08.758Z,0.83
2018-12-15T15:40:37.085Z,0.88
2018-12-15T15:43:05.458Z,0.86
2018-12-15T15:45:33.947Z,0.89
2018-12-15T15:48:02.332Z,0.89
2018-12-15T15:50:36.414Z,0.92
2018-12-15T15:53:01.647Z,1.02
2018-12-15T15:55:30.244Z,0.97
2018-12-15T15:57:58.750Z,0.95
2018-12-15T16:00:27.157Z,0.99
2018-12-15T16:02:55.470Z,1.08
2018-12-15T16:05:23.755Z,1.03
2018-12-15T16:07:52.141Z,1.06
2018-12-15T16:10:20.437Z,0.95
2018-12-15T16:12:48.842Z,0.94
2018-12-15T16:15:17.168Z,0.98
2018-12-15T16:17:45.474Z,0.99
2018-12-15T16:20:13.840Z,0.95
2018-12-15T16:22:42.112Z,0.89
2018-12-15T16:25:10.534Z,1.02
2018-12-15T16:27:38.854Z,1.01
2018-12-15T16:30:11.366Z,0.90
2018-12-15T16:32:39.842Z,0.91
2018-12-15T16:35:08.269Z,0.87
2018-12-15T16:37:36.518Z,0.89
2018-12-15T16:40:06.106Z,0.87
2018-12-15T16:42:34.494Z,0.96
2018-12-15T16:45:02.799Z,0.80
2018-12-15T16:47:31.089Z,0.75
2018-12-15T16:49:59.406Z,0.76
2018-12-15T16:52:29.153Z,0.69
2018-12-15T16:54:57.971Z,0.70
2018-12-15T16:57:26.262Z,0.66
2018-12-15T16:59:54.683Z,0.67
2018-12-15T17:02:22.975Z,0.77
2018-12-15T17:04:51.419Z,0.66
2018-12-15T17:07:19.724Z,0.59
2018-12-15T17:09:47.994Z,0.67
2018-12-15T17:12:16.284Z,0.70
2018-12-15T17:14:44.637Z,0.72
2018-12-15T17:17:12.883Z,0.67
2018-12-15T17:19:41.142Z,0.75
2018-12-15T17:22:09.514Z,0.71
2018-12-15T17:24:37.754Z,0.61
2018-12-15T17:27:06.431Z,0.59
2018-12-15T17:29:34.764Z,0.61
2018-12-15T17:32:03.080Z,0.60
2018-12-15T17:34:31.562Z,0.60
2018-12-15T17:37:00.256Z,0.63
2018-12-15T17:39:28.730Z,0.61
2018-12-15T17:41:57.142Z,0.73
2018-12-15T17:44:25.753Z,0.64
2018-12-15T17:46:54.129Z,0.61
2018-12-15T17:49:22.744Z,0.67
2018-12-15T17:51:51.020Z,0.62
2018-12-15T17:54:19.324Z,0.59
2018-12-15T17:56:47.633Z,0.60
2018-12-15T17:59:15.884Z,0.65
2018-12-15T18:01:44.136Z,0.67
2018-12-15T18:04:12.535Z,0.76
2018-12-15T18:06:40.956Z,0.71
2018-12-15T18:09:09.698Z,0.72
2018-12-15T18:11:38.033Z,0.78
2018-12-15T18:14:10.158Z,0.79
2018-12-15T18:16:38.504Z,0.85
2018-12-15T18:19:07.046Z,0.82
2018-12-15T18:21:35.319Z,0.74
2018-12-15T18:24:03.550Z,0.81
2018-12-15T18:26:31.919Z,0.74
2018-12-15T18:29:00.854Z,0.84
2018-12-15T18:31:29.830Z,0.78
2018-12-15T18:33:58.136Z,0.80
2018-12-15T18:36:26.406Z,0.88
2018-12-15T18:38:54.647Z,0.77
2018-12-15T18:41:23.036Z,0.76
2018-12-15T18:43:51.242Z,0.79
2018-12-15T18:46:19.499Z,0.78
2018-12-15T18:48:47.900Z,0.86
2018-12-15T18:51:16.593Z,0.72
2018-12-15T18:53:44.993Z,0.77
2018-12-15T18:56:13.391Z,0.75
2018-12-15T18:58:41.718Z,0.76
2018-12-15T19:01:10.093Z,0.78
2018-12-15T19:03:38.385Z,0.72
2018-12-15T19:06:06.720Z,0.83
2018-12-15T19:08:35.036Z,0.78
2018-12-15T19:11:03.325Z,0.82
2018-12-15T19:13:31.572Z,0.80
2018-12-15T19:15:59.988Z,0.80
2018-12-15T19:18:28.288Z,0.89
2018-12-15T19:20:56.670Z,0.84
2018-12-15T19:23:25.366Z,0.82
2018-12-15T19:25:54.339Z,0.93
2018-12-15T19:28:22.751Z,0.97
2018-12-15T19:30:51.109Z,0.94
2018-12-15T19:33:19.390Z,1.03
2018-12-15T19:35:47.698Z,0.93
2018-12-15T19:38:16.004Z,0.97
2018-12-15T19:40:57.256Z,0.91
2018-12-15T19:43:26.437Z,0.96
2018-12-15T19:45:54.929Z,1.08
2018-12-15T19:48:23.265Z,0.98
2018-12-15T19:50:51.569Z,0.95
2018-12-15T19:53:20.069Z,0.92
2018-12-15T19:55:48.328Z,0.92
2018-12-15T19:58:16.608Z,0.96
2018-12-15T20:00:44.870Z,0.95
2018-12-15T20:03:13.190Z,0.96
2018-12-15T20:05:41.480Z,1.02
2018-12-15T20:08:09.760Z,0.94
2018-12-15T20:10:38.052Z,0.93
2018-12-15T20:13:06.334Z,0.98
2018-12-15T20:15:34.720Z,0.96
2018-12-15T20:18:02.965Z,0.95
2018-12-15T20:20:31.232Z,0.99
2018-12-15T20:22:59.749Z,0.97
2018-12-15T20:25:28.033Z,0.91
2018-12-15T20:27:56.425Z,0.89
2018-12-15T20:30:24.871Z,0.92
2018-12-15T20:32:53.252Z,0.86
2018-12-15T20:35:21.533Z,0.87
2018-12-15T20:37:50.080Z,0.84
2018-12-15T20:40:18.413Z,0.86
2018-12-15T20:42:46.727Z,0.83
2018-12-15T20:45:15.076Z,0.97
2018-12-15T20:47:43.427Z,0.98
2018-12-15T20:53:04.563Z,0.89
2018-12-15T20:55:32.858Z,0.97
2018-12-15T20:58:01.125Z,0.92
2018-12-15T21:00:29.423Z,0.89
2018-12-15T21:02:57.723Z,0.86
2018-12-15T21:05:25.926Z,1.04
2018-12-15T21:07:54.224Z,0.94
2018-12-15T21:10:22.463Z,1.02
2018-12-15T21:12:50.838Z,0.97
2018-12-15T21:15:23.142Z,0.92
2018-12-15T21:17:51.453Z,0.90
2018-12-15T21:20:19.755Z,0.93
2018-12-15T21:22:48.053Z,0.92
2018-12-15T21:25:16.875Z,0.94
2018-12-15T21:27:45.189Z,0.98
2018-12-15T21:30:13.953Z,0.89
2018-12-15T21:32:42.213Z,0.87
2018-12-15T21:35:10.552Z,0.89
2018-12-15T21:37:39.280Z,0.89
2018-12-15T21:40:08.085Z,0.90
2018-12-15T21:42:36.370Z,0.87
2018-12-15T21:45:05.140Z,0.86
2018-12-15T21:47:33.537Z,0.93
2018-12-15T21:50:01.992Z,0.93
2018-12-15T21:52:30.608Z,0.87
2018-12-15T21:54:58.922Z,0.83
2018-12-15T21:57:27.407Z,0.92
2018-12-15T21:59:55.668Z,0.95
2018-12-15T22:02:24.087Z,0.82
2018-12-15T22:04:52.489Z,0.79
2018-12-15T22:07:20.821Z,0.76
2018-12-15T22:12:42.225Z,0.74
2018-12-15T22:15:10.653Z,0.72
2018-12-15T22:17:39.001Z,0.70
2018-12-15T22:20:10.049Z,0.61
2018-12-15T22:22:39.934Z,0.62
2018-12-15T22:25:08.269Z,0.70
2018-12-15T22:27:36.551Z,0.61
2018-12-15T22:30:05.527Z,0.64
2018-12-15T22:32:33.855Z,0.55
2018-12-15T22:35:02.139Z,0.57
2018-12-15T22:37:30.441Z,0.54
2018-12-15T22:39:58.675Z,0.54
2018-12-15T22:42:26.956Z,0.52
2018-12-15T22:44:55.357Z,0.44
2018-12-15T22:47:23.588Z,0.47
2018-12-15T22:49:51.893Z,0.56
2018-12-15T22:52:20.691Z,0.49
2018-12-15T22:54:48.973Z,0.53
2018-12-15T22:57:17.383Z,0.53
2018-12-15T22:59:45.691Z,0.49
2018-12-15T23:02:13.955Z,0.37
2018-12-15T23:04:42.173Z,0.26
2018-12-15T23:07:10.557Z,0.21
2018-12-15T23:09:38.842Z,0.15
2018-12-15T23:12:07.213Z,0.13
2018-12-15T23:14:35.576Z,0.05
2018-12-15T23:17:03.891Z,0.02
2018-12-15T23:19:32.219Z,0.13
2018-12-15T23:22:00.520Z,0.10
2018-12-15T23:24:28.821Z,0.00
2018-12-15T23:26:57.111Z,-0.11
2018-12-15T23:29:25.447Z,-0.05
2018-12-15T23:31:53.744Z,-0.19
2018-12-15T23:34:22.481Z,-0.11
2018-12-15T23:36:50.845Z,-0.07
2018-12-15T23:39:19.161Z,-0.10
2018-12-15T23:41:47.744Z,-0.19
2018-12-15T23:44:16.021Z,-0.24
2018-12-15T23:46:44.317Z,-0.20
2018-12-15T23:49:12.519Z,-0.28
2018-12-15T23:51:40.748Z,-0.24
2018-12-15T23:54:08.997Z,-0.26
2018-12-15T23:56:37.268Z,-0.26
2018-12-15T23:59:05.641Z,-0.26
